Time;durP1;ratioP1;P1;durP2;ratioP2;P2;SDS_P1;SDS_P2;PMS_P1;PMS_P2;Temp;Humidity;BMP_temperature;BMP_pressure;BME280_temperature;BME280_humidity;BME280_pressure;Samples;Min_cycle;Max_cycle;Signal;HPM_P1;HPM_P2
2022/06/15 00:00:54;;;;;;;1.90;1.70;;;;;;;17.28;67.03;95039.00;5093690;28;20208;-62
2022/06/15 00:03:20;;;;;;;3.17;1.90;;;;;;;17.25;67.10;95018.78;5093517;28;20167;-62
2022/06/15 00:05:46;;;;;;;4.43;1.73;;;;;;;17.26;66.21;95043.50;5075386;28;20205;-60
2022/06/15 00:08:11;;;;;;;4.82;1.60;;;;;;;17.18;65.38;95052.03;5075453;28;20604;-60
2022/06/15 00:10:39;;;;;;;2.75;1.45;;;;;;;17.27;65.35;95045.13;5093471;28;20199;-62
2022/06/15 00:13:04;;;;;;;4.43;1.67;;;;;;;17.24;64.57;95053.13;5093418;28;20156;-63
2022/06/15 00:15:30;;;;;;;2.88;1.83;;;;;;;17.24;64.49;95056.53;5093320;28;20211;-62
2022/06/15 00:17:55;;;;;;;2.72;1.70;;;;;;;17.19;64.20;95053.59;5093276;28;20192;-63
2022/06/15 00:20:21;;;;;;;1.95;1.75;;;;;;;17.24;63.89;95065.97;5093192;28;20223;-60
2022/06/15 00:22:46;;;;;;;2.08;1.55;;;;;;;17.31;63.53;95060.03;5093235;28;20188;-59
2022/06/15 00:25:13;;;;;;;2.63;1.73;;;;;;;17.26;62.85;95064.06;5093629;28;20203;-65
2022/06/15 00:27:39;;;;;;;2.35;1.50;;;;;;;17.28;63.40;95059.56;5093970;28;20196;-59
2022/06/15 00:30:05;;;;;;;4.35;1.77;;;;;;;17.21;63.31;95045.75;5093225;28;20200;-61
2022/06/15 00:32:31;;;;;;;3.80;1.90;;;;;;;17.21;63.03;95056.81;5092965;28;20261;-61
2022/06/15 00:34:57;;;;;;;3.53;1.50;;;;;;;17.21;62.69;95056.81;5093072;28;20279;-61
2022/06/15 00:37:22;;;;;;;4.20;1.85;;;;;;;17.16;62.66;95058.28;5075095;28;20238;-63
2022/06/15 00:39:48;;;;;;;3.38;1.65;;;;;;;17.20;62.53;95060.38;5093099;28;20213;-63
2022/06/15 00:42:14;;;;;;;4.47;1.60;;;;;;;17.24;62.37;95071.94;5093531;28;20542;-63
2022/06/15 00:44:42;;;;;;;2.50;1.42;;;;;;;17.22;61.99;95068.72;5093231;28;20227;-63
2022/06/15 00:47:30;;;;;;;2.88;1.50;;;;;;;17.27;62.01;95070.81;5092851;28;20195;-60
2022/06/15 00:50:13;;;;;;;5.43;1.90;;;;;;;17.23;61.57;95082.38;5092843;28;20362;-62
2022/06/15 00:52:58;;;;;;;2.28;1.88;;;;;;;17.24;62.57;95058.28;5093182;28;20186;-62
2022/06/15 00:55:30;;;;;;;4.32;1.60;;;;;;;17.20;62.02;95068.09;5092750;28;20271;-62
2022/06/15 00:58:07;;;;;;;3.95;1.73;;;;;;;17.21;62.58;95048.34;5074433;28;20180;-61
2022/06/15 01:00:33;;;;;;;4.95;1.67;;;;;;;17.18;62.13;95067.44;5092608;28;20199;-62
2022/06/15 01:02:59;;;;;;;3.88;1.63;;;;;;;17.19;61.56;95087.00;5092945;28;20172;-61
2022/06/15 01:05:27;;;;;;;3.30;1.58;;;;;;;17.19;61.65;95078.53;5074350;28;20196;-62
2022/06/15 01:08:02;;;;;;;3.08;1.90;;;;;;;17.19;61.75;95079.31;5092488;28;20209;-61
2022/06/15 01:10:45;;;;;;;4.45;1.60;;;;;;;17.22;61.20;95096.19;5092424;28;20286;-61
2022/06/15 01:13:30;;;;;;;1.83;1.70;;;;;;;17.15;61.29;95087.50;5092634;28;20247;-61
2022/06/15 01:16:10;;;;;;;1.88;1.60;;;;;;;17.13;61.66;95079.16;5074179;28;20199;-58
2022/06/15 01:18:39;;;;;;;5.85;1.52;;;;;;;17.11;61.55;95081.09;5092329;28;20269;-64
2022/06/15 01:21:08;;;;;;;5.80;1.92;;;;;;;17.15;61.34;95077.25;5092313;28;20192;-61
2022/06/15 01:24:04;;;;;;;2.72;1.30;;;;;;;17.09;60.73;95093.28;5092233;28;20168;-61
2022/06/15 01:26:57;;;;;;;3.38;1.67;;;;;;;17.09;61.43;95076.09;5081426;28;20207;-61
2022/06/15 01:29:35;;;;;;;2.63;1.42;;;;;;;17.05;61.01;95085.06;5073980;28;20223;-62
2022/06/15 01:32:13;;;;;;;5.13;1.77;;;;;;;17.10;60.53;95089.75;5092513;28;20652;-60
2022/06/15 01:35:11;;;;;;;3.53;1.42;;;;;;;17.03;61.25;95078.50;5092208;28;20233;-59
2022/06/15 01:37:42;;;;;;;3.55;1.67;;;;;;;17.00;61.59;95059.06;5092147;28;20646;-60
2022/06/15 01:40:33;;;;;;;4.25;1.42;;;;;;;17.01;61.63;95067.59;5073913;28;20216;-58
2022/06/15 01:43:05;;;;;;;2.72;1.70;;;;;;;16.97;61.51;95067.06;5092364;28;20559;-64
2022/06/15 01:45:34;;;;;;;1.63;1.52;;;;;;;16.92;61.15;95071.91;5092441;28;20196;-61
2022/06/15 01:48:05;;;;;;;1.75;1.50;;;;;;;16.88;61.88;95062.91;5092055;28;20593;-63
2022/06/15 01:50:46;;;;;;;3.65;1.80;;;;;;;16.90;62.13;95053.28;5091935;28;20568;-62
2022/06/15 01:53:37;;;;;;;2.50;1.55;;;;;;;16.83;61.42;95072.06;5098816;22;20228;-64
2022/06/15 01:56:16;;;;;;;1.48;1.25;;;;;;;16.75;62.05;95057.41;5092166;28;20212;-60
2022/06/15 01:58:46;;;;;;;1.70;1.60;;;;;;;16.82;62.27;95060.16;5073450;28;20246;-61
2022/06/15 02:01:14;;;;;;;5.28;2.70;;;;;;;16.76;62.30;95053.91;5092051;28;20256;-59
2022/06/15 02:03:58;;;;;;;6.45;3.03;;;;;;;16.72;62.47;95048.25;5094496;28;20172;-59
2022/06/15 02:07:07;;;;;;;2.78;2.15;;;;;;;16.69;62.60;95058.03;5076320;28;20211;-63
2022/06/15 02:09:56;;;;;;;3.00;1.42;;;;;;;16.69;62.19;95060.59;5066916;28;20216;-63
2022/06/15 02:12:32;;;;;;;2.05;1.65;;;;;;;16.70;62.24;95063.00;5096225;28;20218;-59
2022/06/15 02:14:59;;;;;;;5.25;1.95;;;;;;;16.69;62.60;95050.34;5077548;28;20230;-60
2022/06/15 02:17:36;;;;;;;2.67;1.67;;;;;;;16.60;62.76;95041.78;5096244;28;20540;-62
2022/06/15 02:20:24;;;;;;;2.80;1.50;;;;;;;16.57;62.97;95039.56;5077429;28;20239;-68
2022/06/15 02:22:52;;;;;;;4.60;1.85;;;;;;;16.52;62.86;95038.44;5096097;28;20180;-63
2022/06/15 02:25:30;;;;;;;3.17;1.50;;;;;;;16.55;63.42;95044.03;5095751;28;20220;-63
2022/06/15 02:27:56;;;;;;;2.47;1.60;;;;;;;16.54;63.34;95032.16;5095623;28;20177;-62
2022/06/15 02:30:31;;;;;;;3.42;1.50;;;;;;;16.56;62.64;95055.91;5077405;28;20257;-61
2022/06/15 02:33:08;;;;;;;2.72;1.65;;;;;;;16.59;63.03;95039.41;5077285;28;20184;-62
2022/06/15 02:35:33;;;;;;;13.80;9.30;;;;;;;16.53;63.12;95024.63;5096113;28;20254;-61
2022/06/15 02:37:59;;;;;;;14.65;11.43;;;;;;;16.62;63.12;95039.88;5095581;28;20177;-59
2022/06/15 02:40:24;;;;;;;3.97;2.75;;;;;;;16.58;62.86;95046.28;5095111;28;20211;-59
2022/06/15 02:42:50;;;;;;;4.05;1.90;;;;;;;16.54;63.26;95024.47;5095285;28;20654;-61
2022/06/15 02:45:23;;;;;;;2.97;1.70;;;;;;;16.57;63.15;95031.84;5095186;28;20189;-61
2022/06/15 02:47:49;;;;;;;3.88;1.80;;;;;;;16.53;63.26;95027.19;5095806;28;20566;-61
2022/06/15 02:50:20;;;;;;;3.40;1.60;;;;;;;16.50;63.49;95025.72;5094880;28;20302;-61
2022/06/15 02:53:01;;;;;;;2.25;2.00;;;;;;;16.52;62.86;95041.00;5077113;28;20271;-61
2022/06/15 02:55:27;;;;;;;3.00;1.90;;;;;;;16.54;63.09;95041.66;5077309;28;20200;-60
2022/06/15 02:58:14;;;;;;;4.53;3.00;;;;;;;16.58;62.99;95042.94;5095832;28;20184;-64
2022/06/15 03:00:40;;;;;;;3.42;2.72;;;;;;;16.63;62.79;95045.81;5084727;28;20232;-61
2022/06/15 03:03:07;;;;;;;4.85;2.85;;;;;;;16.70;62.88;95047.59;5094828;28;20176;-61
2022/06/15 03:05:32;;;;;;;2.78;1.73;;;;;;;16.63;63.45;95022.72;5094754;28;20200;-62
2022/06/15 03:07:58;;;;;;;2.47;1.58;;;;;;;16.53;63.70;95022.06;5076861;28;20528;-63
2022/06/15 03:10:23;;;;;;;3.92;1.92;;;;;;;16.52;63.64;95017.91;5094794;28;20200;-63
2022/06/15 03:12:49;;;;;;;2.70;1.52;;;;;;;16.29;63.46;94994.53;5094550;28;20642;-59
2022/06/15 03:15:15;;;;;;;7.30;2.05;;;;;;;16.41;63.67;95025.84;5076204;28;20569;-60
2022/06/15 03:17:41;;;;;;;4.68;2.15;;;;;;;16.40;64.49;95003.72;5094878;28;20288;-60
2022/06/15 03:20:09;;;;;;;6.65;1.95;;;;;;;16.42;63.80;95010.28;5094440;28;20231;-62
2022/06/15 03:22:35;;;;;;;2.80;1.75;;;;;;;16.48;65.00;94996.03;5095020;28;20661;-61
2022/06/15 03:25:01;;;;;;;3.65;1.70;;;;;;;16.53;65.66;94975.84;5094372;28;20205;-61
2022/06/15 03:27:27;;;;;;;2.40;1.83;;;;;;;16.60;64.56;95002.50;5076391;28;20188;-62
2022/06/15 03:29:53;;;;;;;4.10;1.85;;;;;;;16.62;65.66;94974.91;5094252;28;20203;-62
2022/06/15 03:32:18;;;;;;;2.53;1.70;;;;;;;16.92;73.44;94811.69;5076034;28;20238;-60
2022/06/15 03:34:44;;;;;;;3.50;1.80;;;;;;;17.27;72.45;94871.16;5076058;28;20204;-59
2022/06/15 03:37:10;;;;;;;7.13;2.00;;;;;;;17.66;73.40;94873.78;5076202;28;20617;-60
2022/06/15 03:39:37;;;;;;;3.72;2.10;;;;;;;17.88;68.98;94968.22;5094427;28;20212;-60
2022/06/15 03:42:17;;;;;;;3.53;1.58;;;;;;;18.11;69.63;94950.28;5094431;28;20234;-60
2022/06/15 03:44:43;;;;;;;5.28;2.20;;;;;;;18.09;71.14;94914.44;5094183;28;20275;-64
2022/06/15 03:47:13;;;;;;;3.47;2.42;;;;;;;18.14;68.89;94963.59;5081781;22;20323;-57
2022/06/15 03:49:39;;;;;;;6.15;1.90;;;;;;;18.34;71.54;94921.03;5094317;28;20649;-62
2022/06/15 03:52:06;;;;;;;5.07;2.25;;;;;;;18.06;65.29;95055.50;5075627;28;20179;-62
2022/06/15 03:54:31;;;;;;;3.05;2.42;;;;;;;17.88;65.14;95057.44;5093905;28;20196;-62
2022/06/15 03:56:57;;;;;;;2.85;2.05;;;;;;;17.83;67.05;95003.94;5093798;28;20226;-59
2022/06/15 03:59:22;;;;;;;5.45;2.28;;;;;;;17.84;68.32;94971.28;5076245;28;20216;-61
2022/06/15 04:01:48;;;;;;;3.47;2.60;;;;;;;17.66;71.41;94914.13;5093759;28;20172;-62
2022/06/15 04:04:13;;;;;;;7.70;2.30;;;;;;;17.47;70.73;94931.50;5093744;28;20657;-61
2022/06/15 04:06:39;;;;;;;6.45;2.45;;;;;;;17.70;72.16;94903.34;5094287;28;20653;-62
2022/06/15 04:09:04;;;;;;;5.45;3.00;;;;;;;17.29;74.51;94861.50;5093690;28;20171;-66
2022/06/15 04:14:15;;;;;;;8.32;3.78;;;;;;;16.97;76.07;94853.09;5093614;28;20172;-62
2022/06/15 04:16:42;;;;;;;4.85;3.28;;;;;;;16.98;76.86;94829.00;5093235;28;20184;-62
2022/06/15 04:19:08;;;;;;;7.80;3.03;;;;;;;16.81;76.26;94835.16;5075537;28;20272;-59
2022/06/15 04:21:34;;;;;;;4.28;2.85;;;;;;;16.96;76.45;94854.88;5093723;28;20626;-60
2022/06/15 04:23:59;;;;;;;5.00;2.67;;;;;;;17.07;75.64;94874.28;5074997;28;20172;-63
2022/06/15 04:26:25;;;;;;;9.00;2.90;;;;;;;16.84;76.29;94857.94;5093395;28;20638;-60
2022/06/15 04:28:50;;;;;;;5.22;3.20;;;;;;;16.90;76.46;94868.34;5093006;28;20161;-59
2022/06/15 04:31:16;;;;;;;6.15;3.35;;;;;;;16.99;77.85;94851.94;5100224;22;20281;-59
2022/06/15 04:33:42;;;;;;;8.18;2.88;;;;;;;16.78;78.75;94826.00;5074669;28;20183;-58
2022/06/15 04:36:12;;;;;;;7.00;3.20;;;;;;;17.02;77.26;94871.38;5092917;28;20685;-59
2022/06/15 04:38:37;;;;;;;8.15;2.58;;;;;;;17.18;88.56;94801.97;5074712;28;20287;-63
2022/06/15 04:41:03;;;;;;;5.90;3.00;;;;;;;17.30;85.99;94840.00;5074623;28;20284;-63
2022/06/15 04:43:29;;;;;;;6.22;3.88;;;;;;;17.58;83.40;94854.06;5092707;28;20661;-62
2022/06/15 04:45:55;;;;;;;4.80;3.13;;;;;;;17.74;85.41;94878.09;5093063;28;20195;-60
2022/06/15 04:48:21;;;;;;;6.60;3.47;;;;;;;17.90;82.65;94901.97;5093002;28;20175;-59
2022/06/15 04:50:46;;;;;;;10.13;3.13;;;;;;;18.09;82.37;94891.25;5074921;28;20196;-62
2022/06/15 04:53:12;;;;;;;6.07;2.83;;;;;;;18.11;82.60;94886.75;5099767;22;20227;-62
2022/06/15 04:55:37;;;;;;;6.35;2.97;;;;;;;18.12;78.89;94950.09;5074444;28;20630;-63
2022/06/15 04:58:04;;;;;;;6.13;2.83;;;;;;;18.36;78.53;94968.00;5092482;28;20190;-59
2022/06/15 05:00:37;;;;;;;5.35;3.38;;;;;;;18.16;73.13;95043.22;5074382;28;20207;-62
2022/06/15 05:03:04;;;;;;;9.75;3.40;;;;;;;17.82;76.31;94968.88;5092799;28;20165;-62
2022/06/15 05:05:29;;;;;;;6.72;3.70;;;;;;;18.09;75.50;94986.47;5057635;28;20223;-62
2022/06/15 05:07:55;;;;;;;4.97;3.25;;;;;;;17.82;74.73;94998.94;5092589;28;20168;-62
2022/06/15 05:10:23;;;;;;;5.40;3.10;;;;;;;17.64;74.28;94983.72;5074431;28;20595;-61
2022/06/15 05:12:49;;;;;;;4.88;2.55;;;;;;;17.76;74.75;94986.72;5092412;28;20196;-61
2022/06/15 05:15:16;;;;;;;5.05;2.75;;;;;;;17.78;75.60;94974.50;5092456;28;20205;-61
2022/06/15 05:17:43;;;;;;;5.05;3.10;;;;;;;17.64;75.26;94973.44;5092823;28;20254;-61
2022/06/15 05:20:11;;;;;;;5.22;3.00;;;;;;;17.42;75.43;94980.03;5074236;28;20226;-62
2022/06/15 05:22:37;;;;;;;6.20;3.15;;;;;;;17.42;76.21;94963.81;5093123;28;20181;-64
2022/06/15 05:25:07;;;;;;;5.38;2.90;;;;;;;17.38;74.11;95011.38;5092199;28;20194;-61
2022/06/15 05:27:34;;;;;;;6.93;2.65;;;;;;;17.41;76.21;94962.22;5092715;28;20191;-63
2022/06/15 05:30:00;;;;;;;4.05;2.83;;;;;;;17.49;75.71;94973.28;5092376;28;20366;-60
2022/06/15 05:32:26;;;;;;;8.25;2.80;;;;;;;17.57;74.96;94993.84;5093142;28;20271;-61
2022/06/15 05:34:54;;;;;;;4.05;3.30;;;;;;;17.67;72.76;95039.16;5074016;28;20196;-63
2022/06/15 05:37:19;;;;;;;4.32;3.10;;;;;;;17.74;72.71;95035.78;5073085;28;20188;-59
2022/06/15 05:39:45;;;;;;;8.00;3.10;;;;;;;17.31;73.34;94990.66;5092157;28;20664;-59
2022/06/15 05:42:11;;;;;;;4.32;2.80;;;;;;;17.54;73.50;95016.53;5092611;28;20176;-62
2022/06/15 05:44:44;;;;;;;5.28;3.00;;;;;;;17.65;74.65;94995.63;5092096;28;20200;-65
2022/06/15 05:47:11;;;;;;;4.40;2.88;;;;;;;17.51;71.27;95058.00;5074456;28;20188;-61
2022/06/15 05:49:37;;;;;;;3.22;2.17;;;;;;;17.53;70.30;95079.97;5092297;28;20199;-63
2022/06/15 05:52:03;;;;;;;6.80;2.95;;;;;;;17.51;69.45;95091.41;5074161;28;20196;-62
2022/06/15 05:54:28;;;;;;;5.90;3.10;;;;;;;17.59;69.74;95076.75;5073843;28;20206;-60
2022/06/15 05:56:54;;;;;;;5.50;2.30;;;;;;;17.69;68.83;95102.34;5074001;28;20188;-62
2022/06/15 05:59:20;;;;;;;5.30;2.35;;;;;;;18.09;74.69;94983.91;5091825;28;20622;-62
2022/06/15 06:01:45;;;;;;;3.45;2.42;;;;;;;17.95;68.39;95110.66;5092248;28;20172;-60
2022/06/15 06:04:15;;;;;;;4.88;2.28;;;;;;;17.89;66.59;95144.75;5091764;28;20172;-62
2022/06/15 06:06:42;;;;;;;3.25;2.10;;;;;;;17.84;66.40;95149.56;5092300;28;20212;-61
2022/06/15 06:09:09;;;;;;;7.18;2.08;;;;;;;17.94;65.82;95162.25;5091664;28;20180;-60
2022/06/15 06:11:35;;;;;;;7.93;2.38;;;;;;;17.94;65.30;95160.50;5073722;28;20245;-62
2022/06/15 06:14:01;;;;;;;4.30;2.30;;;;;;;17.89;65.06;95154.25;5073719;28;20188;-61
2022/06/15 06:16:27;;;;;;;7.43;3.10;;;;;;;18.03;66.10;95133.81;5091898;28;20184;-62
2022/06/15 06:18:52;;;;;;;7.55;3.20;;;;;;;18.17;66.20;95132.31;5091959;28;20220;-61
2022/06/15 06:21:19;;;;;;;4.68;2.58;;;;;;;18.28;67.41;95103.69;5091970;28;20268;-63
2022/06/15 06:23:45;;;;;;;4.13;2.35;;;;;;;18.22;65.28;95161.75;5073594;28;20180;-61
2022/06/15 06:26:22;;;;;;;5.07;2.70;;;;;;;18.29;64.39;95178.16;5091681;28;20208;-64
2022/06/15 06:28:49;;;;;;;3.17;2.28;;;;;;;18.27;64.22;95172.38;5091607;28;20638;-62
2022/06/15 06:31:14;;;;;;;4.85;2.70;;;;;;;18.31;64.24;95171.06;5091826;28;20709;-60
2022/06/15 06:33:40;;;;;;;7.15;2.50;;;;;;;18.31;63.96;95176.22;5091613;28;20624;-63
2022/06/15 06:36:13;;;;;;;4.47;2.58;;;;;;;18.35;63.80;95177.50;5091733;28;20200;-62
2022/06/15 06:38:38;;;;;;;4.00;2.00;;;;;;;18.43;63.94;95156.09;5091854;28;20195;-62
2022/06/15 06:41:04;;;;;;;2.45;1.70;;;;;;;18.37;63.46;95167.03;5091673;28;20708;-61
2022/06/15 06:43:29;;;;;;;4.18;2.38;;;;;;;18.50;64.27;95157.06;5091614;28;20172;-65
2022/06/15 06:45:55;;;;;;;4.03;1.95;;;;;;;18.51;64.48;95144.97;5091306;28;20243;-59
2022/06/15 06:48:20;;;;;;;2.72;2.42;;;;;;;18.56;64.94;95127.25;5091320;28;20622;-59
2022/06/15 06:50:46;;;;;;;2.65;2.10;;;;;;;18.72;63.68;95147.81;5095180;28;20200;-62
2022/06/15 06:53:13;;;;;;;5.85;2.33;;;;;;;18.86;64.21;95135.03;5095851;28;20226;-62
2022/06/15 06:55:39;;;;;;;5.75;2.38;;;;;;;19.01;61.67;95207.25;5095124;28;20200;-60
2022/06/15 06:58:05;;;;;;;2.63;2.05;;;;;;;19.09;61.46;95205.47;5094926;28;20168;-61
2022/06/15 07:00:32;;;;;;;4.90;2.35;;;;;;;19.20;62.75;95158.69;5094688;28;20212;-61
2022/06/15 07:03:01;;;;;;;4.82;2.65;;;;;;;19.41;62.16;95186.50;5094738;28;20233;-61
2022/06/15 07:05:27;;;;;;;6.03;2.40;;;;;;;19.32;62.51;95163.44;5076666;28;20204;-62
2022/06/15 07:07:53;;;;;;;3.70;2.30;;;;;;;19.18;61.88;95185.59;5102278;22;20729;-63
2022/06/15 07:10:18;;;;;;;5.72;2.20;;;;;;;19.48;62.00;95187.41;5095028;28;20250;-59
2022/06/15 07:12:44;;;;;;;3.35;2.10;;;;;;;19.40;61.56;95184.88;5095253;28;20192;-60
2022/06/15 07:15:12;;;;;;;4.75;2.78;;;;;;;19.60;63.02;95155.06;5094964;28;20204;-61
2022/06/15 07:17:38;;;;;;;4.95;2.53;;;;;;;19.57;61.14;95191.53;5095206;28;20193;-59
2022/06/15 07:20:06;;;;;;;5.60;1.80;;;;;;;19.63;62.14;95161.66;5094422;28;20204;-59
2022/06/15 07:22:33;;;;;;;4.15;2.40;;;;;;;19.82;62.81;95148.28;5095038;28;20207;-61
2022/06/15 07:24:58;;;;;;;6.38;2.70;;;;;;;19.96;62.21;95173.31;5094483;28;20621;-59
2022/06/15 07:27:24;;;;;;;5.68;3.30;;;;;;;19.90;61.79;95179.19;5094882;28;20225;-58
2022/06/15 07:29:49;;;;;;;8.60;2.67;;;;;;;19.83;60.94;95204.91;5094357;28;20221;-63
2022/06/15 07:32:17;;;;;;;5.40;1.80;;;;;;;19.68;59.44;95224.66;5094708;28;20271;-63
2022/06/15 07:34:43;;;;;;;6.53;2.58;;;;;;;19.89;61.41;95172.44;5094061;28;20200;-59
2022/06/15 07:37:10;;;;;;;3.38;2.17;;;;;;;19.85;60.75;95184.88;5094771;28;20188;-63
2022/06/15 07:39:37;;;;;;;3.53;2.10;;;;;;;19.81;59.57;95214.59;5094238;28;20208;-64
2022/06/15 07:42:05;;;;;;;3.42;1.60;;;;;;;19.78;60.30;95183.97;5094157;28;20181;-62
2022/06/15 07:44:33;;;;;;;4.35;2.30;;;;;;;19.92;58.77;95231.44;5075931;28;20223;-62
2022/06/15 07:49:55;;;;;;;4.38;2.17;;;;;;;19.88;57.74;95251.63;5094116;28;20253;-60
2022/06/15 07:52:29;;;;;;;6.80;2.53;;;;;;;19.84;57.77;95250.38;5094237;28;20649;-61
2022/06/15 07:54:55;;;;;;;5.10;2.67;;;;;;;19.80;58.02;95238.78;5094141;28;20222;-61
2022/06/15 07:57:20;;;;;;;4.07;2.25;;;;;;;19.95;58.32;95225.94;5094186;28;20187;-62
2022/06/15 07:59:46;;;;;;;3.90;2.38;;;;;;;20.21;58.47;95221.25;5093318;28;20290;-61
2022/06/15 08:02:11;;;;;;;3.47;1.70;;;;;;;20.15;58.07;95215.94;5092956;28;20200;-61
2022/06/15 08:04:37;;;;;;;5.82;2.30;;;;;;;20.29;58.33;95208.25;5093681;28;20575;-58
2022/06/15 08:07:05;;;;;;;4.65;2.05;;;;;;;20.42;58.54;95197.34;5094209;28;20196;-62
2022/06/15 08:09:31;;;;;;;3.50;1.85;;;;;;;20.56;58.11;95207.66;5093776;28;20215;-62
2022/06/15 08:12:11;;;;;;;9.82;3.67;;;;;;;20.70;58.35;95212.06;5093637;28;20662;-62
2022/06/15 08:14:40;;;;;;;5.18;2.05;;;;;;;20.69;58.30;95207.03;5093738;28;20286;-61
2022/06/15 08:17:10;;;;;;;4.88;2.00;;;;;;;20.51;56.19;95253.09;5093991;28;20180;-62
2022/06/15 08:19:39;;;;;;;4.78;2.17;;;;;;;20.49;56.54;95242.13;5093333;28;20598;-62
2022/06/15 08:22:07;;;;;;;2.83;2.00;;;;;;;20.50;55.79;95254.09;5093953;28;20223;-60
2022/06/15 08:24:32;;;;;;;3.33;2.00;;;;;;;20.40;55.83;95248.38;5093497;28;20188;-62
2022/06/15 08:26:58;;;;;;;4.07;1.92;;;;;;;20.52;56.63;95234.81;5093583;28;20633;-59
2022/06/15 08:29:24;;;;;;;2.05;1.50;;;;;;;20.73;57.62;95205.72;5093248;28;20745;-63
2022/06/15 08:31:49;;;;;;;4.68;1.90;;;;;;;21.13;57.41;95210.44;5075077;28;20181;-64
2022/06/15 08:34:15;;;;;;;4.63;2.35;;;;;;;21.20;55.06;95283.75;5093390;28;20168;-60
2022/06/15 08:36:40;;;;;;;2.80;2.20;;;;;;;21.03;54.97;95273.78;5093490;28;20271;-63
2022/06/15 08:39:06;;;;;;;2.53;1.55;;;;;;;21.10;54.29;95285.81;5074812;28;20208;-62
2022/06/15 08:42:03;;;;;;;3.88;2.10;;;;;;;21.00;53.36;95298.19;5093361;28;20180;-60
2022/06/15 08:44:36;;;;;;;3.45;2.05;;;;;;;21.33;53.98;95276.16;5093288;28;20569;-60
2022/06/15 08:47:18;;;;;;;5.55;2.35;;;;;;;21.70;56.26;95219.06;5093212;28;20210;-60
2022/06/15 08:50:28;;;;;;;8.52;2.63;;;;;;;21.75;55.32;95250.34;5093223;28;20215;-64
2022/06/15 08:53:07;;;;;;;3.55;2.22;;;;;;;21.55;52.95;95311.44;5069026;28;20196;-64
2022/06/15 08:55:41;;;;;;;2.38;1.70;;;;;;;21.50;52.61;95305.22;5092939;28;20192;-63
2022/06/15 08:58:20;;;;;;;2.17;1.85;;;;;;;21.88;52.66;95321.41;5074547;28;20176;-60
2022/06/15 09:00:46;;;;;;;4.57;2.38;;;;;;;21.96;52.01;95313.56;5092760;28;20628;-61
2022/06/15 09:03:17;;;;;;;6.80;1.98;;;;;;;22.01;50.89;95347.47;5092543;28;20176;-62
2022/06/15 09:05:51;;;;;;;3.63;2.05;;;;;;;22.02;51.91;95318.03;5092677;28;20208;-63
2022/06/15 09:08:16;;;;;;;3.38;2.13;;;;;;;22.16;52.45;95293.84;5092841;28;20180;-61
2022/06/15 09:10:59;;;;;;;3.63;1.88;;;;;;;22.35;53.26;95269.91;5074266;28;20204;-66
2022/06/15 09:13:50;;;;;;;3.83;2.15;;;;;;;22.65;51.24;95317.22;5074303;28;20259;-63
2022/06/15 09:16:24;;;;;;;3.67;1.80;;;;;;;23.03;50.47;95342.66;5099408;22;20613;-63
2022/06/15 09:18:57;;;;;;;4.45;2.45;;;;;;;23.31;52.06;95294.16;5092600;28;20609;-62
2022/06/15 09:21:41;;;;;;;3.33;2.03;;;;;;;23.27;50.05;95354.41;5092194;28;20253;-59
2022/06/15 09:24:20;;;;;;;3.92;2.10;;;;;;;22.66;48.37;95381.06;5074175;28;20185;-59
2022/06/15 09:26:59;;;;;;;3.92;1.80;;;;;;;22.74;49.82;95324.69;5092386;28;20622;-61
2022/06/15 09:29:39;;;;;;;3.15;2.20;;;;;;;22.74;50.22;95319.50;5092387;28;20200;-63
2022/06/15 09:32:08;;;;;;;4.28;2.03;;;;;;;22.82;48.31;95363.44;5092332;28;20253;-61
2022/06/15 09:34:43;;;;;;;6.75;2.10;;;;;;;22.43;48.37;95355.28;5092479;28;20206;-60
2022/06/15 09:37:14;;;;;;;3.72;2.10;;;;;;;22.43;50.67;95286.13;5092034;28;20258;-61
2022/06/15 09:39:40;;;;;;;3.90;2.00;;;;;;;22.65;49.84;95328.41;5092311;28;20216;-61
2022/06/15 09:42:53;;;;;;;2.78;2.05;;;;;;;23.07;50.83;95296.38;5092021;28;20175;-60
2022/06/15 09:45:44;;;;;;;5.03;2.10;;;;;;;23.71;53.15;95216.44;5086163;28;20277;-59
2022/06/15 09:48:49;;;;;;;3.05;2.28;;;;;;;23.71;49.99;95310.72;5092063;28;20223;-62
2022/06/15 09:51:45;;;;;;;4.50;2.10;;;;;;;23.88;49.19;95314.56;5073701;28;20216;-62
2022/06/15 09:54:10;;;;;;;2.53;2.30;;;;;;;23.99;49.88;95313.22;5091932;28;20191;-63
2022/06/15 09:56:36;;;;;;;2.95;2.13;;;;;;;24.39;49.81;95309.72;5073607;28;20184;-59
2022/06/15 09:59:07;;;;;;;2.90;2.10;;;;;;;24.02;46.67;95408.94;5091760;28;20215;-60
2022/06/15 10:01:36;;;;;;;3.15;1.90;;;;;;;24.06;47.18;95386.78;5091578;28;20567;-63
2022/06/15 10:04:04;;;;;;;3.88;1.88;;;;;;;24.10;46.58;95401.81;5091259;28;20184;-60
2022/06/15 10:06:36;;;;;;;2.97;1.70;;;;;;;23.88;46.17;95397.69;5091671;28;20168;-60
2022/06/15 10:09:04;;;;;;;3.63;1.90;;;;;;;23.65;45.95;95411.97;5091315;28;20192;-60
2022/06/15 10:11:42;;;;;;;3.35;1.88;;;;;;;23.70;46.82;95361.03;5091671;28;20351;-59
2022/06/15 10:14:27;;;;;;;4.80;2.22;;;;;;;24.08;45.33;95406.41;5091325;28;20205;-58
2022/06/15 10:17:14;;;;;;;2.33;1.75;;;;;;;24.18;46.16;95361.84;5091689;28;20169;-63
2022/06/15 10:19:47;;;;;;;3.00;1.95;;;;;;;24.50;46.38;95360.34;5091215;28;20249;-61
2022/06/15 10:22:23;;;;;;;4.13;2.10;;;;;;;24.91;46.45;95353.19;5091343;28;20193;-61
2022/06/15 10:24:49;;;;;;;7.57;2.35;;;;;;;24.75;43.97;95453.22;5094199;28;20719;-62
2022/06/15 10:27:37;;;;;;;4.88;1.95;;;;;;;25.08;47.55;95306.72;5077142;28;20658;-63
2022/06/15 10:30:02;;;;;;;3.17;1.75;;;;;;;25.49;45.75;95394.00;5077359;28;20582;-59
2022/06/15 10:32:31;;;;;;;6.22;2.20;;;;;;;26.12;49.32;95266.53;5095206;28;20646;-63
2022/06/15 10:35:04;;;;;;;4.10;1.85;;;;;;;26.00;44.32;95421.94;5077942;28;20200;-63
2022/06/15 10:37:31;;;;;;;2.35;2.10;;;;;;;25.54;42.15;95471.53;5077334;28;20230;-62
2022/06/15 10:40:01;;;;;;;2.42;1.75;;;;;;;25.74;41.26;95498.38;5095307;28;20224;-61
2022/06/15 10:42:41;;;;;;;5.05;1.92;;;;;;;25.93;40.16;95499.34;5095349;28;20259;-62
2022/06/15 10:45:19;;;;;;;6.43;1.90;;;;;;;25.62;39.41;95489.56;5076968;28;20200;-59
2022/06/15 10:47:52;;;;;;;2.85;1.83;;;;;;;26.05;40.70;95438.56;5094934;28;20669;-60
2022/06/15 10:50:26;;;;;;;4.10;2.33;;;;;;;25.39;40.76;95439.69;5095259;28;20196;-63
2022/06/15 10:53:27;;;;;;;4.22;2.00;;;;;;;25.54;45.25;95277.00;5094826;28;20165;-61
2022/06/15 11:04:33;;;;;;;2.15;1.95;;;;;;;26.96;41.30;95419.09;5094908;28;20211;-63
2022/06/15 11:07:04;;;;;;;2.90;2.10;;;;;;;26.69;41.27;95380.28;5094497;28;20756;-62
2022/06/15 11:09:43;;;;;;;2.65;2.35;;;;;;;27.40;41.70;95377.16;5094998;28;20192;-64
2022/06/15 11:12:26;;;;;;;3.95;1.88;;;;;;;28.04;43.20;95329.59;5076371;28;20226;-59
2022/06/15 11:15:05;;;;;;;2.58;1.92;;;;;;;27.96;39.70;95424.03;5076411;28;20215;-60
2022/06/15 11:20:22;;;;;;;3.38;2.10;;;;;;;27.76;39.37;95396.47;5094849;28;20227;-60
2022/06/15 11:22:52;;;;;;;1.90;1.80;;;;;;;27.77;40.78;95348.44;5076529;28;20181;-60
2022/06/15 11:25:25;;;;;;;4.60;2.10;;;;;;;27.46;40.84;95319.81;5094814;28;20235;-60
2022/06/15 11:28:00;;;;;;;2.92;1.83;;;;;;;28.22;41.25;95313.06;5094171;28;20263;-60
2022/06/15 11:30:40;;;;;;;2.53;1.90;;;;;;;27.62;40.77;95327.88;5094758;28;20282;-61
2022/06/15 11:33:18;;;;;;;6.30;1.80;;;;;;;28.58;39.23;95375.81;5094303;28;20172;-60
2022/06/15 11:36:13;;;;;;;2.75;1.90;;;;;;;29.18;38.17;95380.94;5094552;28;20214;-61
2022/06/15 11:38:59;;;;;;;5.45;1.80;;;;;;;29.51;37.61;95371.47;5094209;28;20648;-60
2022/06/15 11:41:27;;;;;;;3.22;1.60;;;;;;;29.50;35.77;95396.13;5094029;28;20269;-60
2022/06/15 11:43:55;;;;;;;5.20;2.25;;;;;;;29.45;38.30;95312.13;5094018;28;20195;-58
2022/06/15 11:46:41;;;;;;;4.18;2.25;;;;;;;29.45;35.59;95374.25;5093951;28;20716;-60
2022/06/15 11:49:33;;;;;;;3.13;1.95;;;;;;;27.59;37.13;95317.06;5093708;28;20645;-63
2022/06/15 11:52:25;;;;;;;3.85;2.10;;;;;;;26.83;38.22;95273.00;5093649;28;20548;-59
2022/06/15 11:55:00;;;;;;;6.03;2.20;;;;;;;26.61;39.01;95249.09;5075661;28;20269;-60
2022/06/15 11:57:34;;;;;;;3.95;2.50;;;;;;;26.89;39.33;95245.25;5093879;28;20625;-59
2022/06/15 12:00:12;;;;;;;2.67;2.25;;;;;;;27.21;41.43;95182.22;5093806;28;20212;-58
2022/06/15 12:02:48;;;;;;;2.10;1.90;;;;;;;25.83;42.86;95105.50;5093535;28;20169;-61
2022/06/15 12:05:48;;;;;;;3.50;2.30;;;;;;;26.54;43.73;95132.78;5094132;28;20665;-62
2022/06/15 12:08:35;;;;;;;4.55;2.20;;;;;;;26.40;45.00;95087.75;5069357;28;20683;-60
2022/06/15 12:14:17;;;;;;;4.65;2.00;;;;;;;25.51;46.57;95060.47;5093396;28;20190;-61